Terminal Aerodrome Forecast
Issued by NWS Charleston, WV

Current Version | Previous Version | Graphics & Text | Print | Product List | Glossary On
Versions: 1 2 3 4 5 6 7 8 9 10 11 12 13 14 15 16 17 18 19 20 21 22 23
987
FTUS41 KRLX 231532 AAB
TAFCRW
TAF AMD
KCRW 231532Z 2316/2412 21010G22KT P6SM VCTS BKN025 OVC035CB
     FM232100 22010KT 3SM SHRA VCTS BKN020 OVC040CB
     FM240600 26010KT 4SM -RA BR OVC007=

USA.gov is the U.S. government's official web portal to all federal, state and local government web resources and services.